sensor_id;sensor_type;location;lat;lon;timestamp;P1;durP1;ratioP1;P2;durP2;ratioP2
48703;SDS011;34502;51.296;16.918;2023-03-01T00:01:26;102.10;;;50.88;;
48703;SDS011;34502;51.296;16.918;2023-03-01T00:03:54;99.97;;;49.70;;
48703;SDS011;34502;51.296;16.918;2023-03-01T00:06:20;100.35;;;48.58;;
48703;SDS011;34502;51.296;16.918;2023-03-01T00:08:47;95.97;;;47.55;;
48703;SDS011;34502;51.296;16.918;2023-03-01T00:13:39;110.25;;;53.25;;
48703;SDS011;34502;51.296;16.918;2023-03-01T00:16:07;110.60;;;49.35;;
48703;SDS011;34502;51.296;16.918;2023-03-01T00:18:34;107.25;;;52.75;;
48703;SDS011;34502;51.296;16.918;2023-03-01T00:21:01;116.22;;;52.90;;
48703;SDS011;34502;51.296;16.918;2023-03-01T00:23:27;102.50;;;51.67;;
48703;SDS011;34502;51.296;16.918;2023-03-01T00:25:53;104.13;;;50.30;;
48703;SDS011;34502;51.296;16.918;2023-03-01T00:28:20;101.68;;;50.00;;
48703;SDS011;34502;51.296;16.918;2023-03-01T00:30:46;111.85;;;53.45;;
48703;SDS011;34502;51.296;16.918;2023-03-01T00:33:12;107.53;;;53.75;;
48703;SDS011;34502;51.296;16.918;2023-03-01T00:35:38;104.15;;;51.47;;
48703;SDS011;34502;51.296;16.918;2023-03-01T00:38:05;102.63;;;53.17;;
48703;SDS011;34502;51.296;16.918;2023-03-01T00:40:32;102.65;;;50.90;;
48703;SDS011;34502;51.296;16.918;2023-03-01T00:43:00;108.97;;;54.60;;
48703;SDS011;34502;51.296;16.918;2023-03-01T00:45:26;116.07;;;53.08;;
48703;SDS011;34502;51.296;16.918;2023-03-01T00:47:53;102.13;;;51.88;;
48703;SDS011;34502;51.296;16.918;2023-03-01T00:50:19;100.40;;;50.17;;
48703;SDS011;34502;51.296;16.918;2023-03-01T00:52:46;104.18;;;50.13;;
48703;SDS011;34502;51.296;16.918;2023-03-01T00:55:12;99.22;;;49.85;;
48703;SDS011;34502;51.296;16.918;2023-03-01T00:57:38;96.28;;;49.92;;
48703;SDS011;34502;51.296;16.918;2023-03-01T01:00:05;103.75;;;51.53;;
48703;SDS011;34502;51.296;16.918;2023-03-01T01:02:33;108.30;;;52.90;;
48703;SDS011;34502;51.296;16.918;2023-03-01T01:04:59;100.07;;;50.65;;
48703;SDS011;34502;51.296;16.918;2023-03-01T01:07:25;100.05;;;51.45;;
48703;SDS011;34502;51.296;16.918;2023-03-01T01:09:51;101.78;;;52.22;;
48703;SDS011;34502;51.296;16.918;2023-03-01T01:12:17;93.78;;;48.58;;
48703;SDS011;34502;51.296;16.918;2023-03-01T01:14:43;96.72;;;50.95;;
48703;SDS011;34502;51.296;16.918;2023-03-01T01:17:10;91.97;;;47.47;;
48703;SDS011;34502;51.296;16.918;2023-03-01T01:19:36;94.53;;;49.55;;
48703;SDS011;34502;51.296;16.918;2023-03-01T01:22:02;92.47;;;49.45;;
48703;SDS011;34502;51.296;16.918;2023-03-01T01:24:28;87.97;;;47.72;;
48703;SDS011;34502;51.296;16.918;2023-03-01T01:26:54;87.70;;;47.53;;
48703;SDS011;34502;51.296;16.918;2023-03-01T01:29:21;82.20;;;46.20;;
48703;SDS011;34502;51.296;16.918;2023-03-01T01:31:47;95.75;;;48.38;;
48703;SDS011;34502;51.296;16.918;2023-03-01T01:34:14;89.03;;;46.63;;
48703;SDS011;34502;51.296;16.918;2023-03-01T01:36:42;88.53;;;45.83;;
48703;SDS011;34502;51.296;16.918;2023-03-01T01:39:08;81.65;;;43.92;;
48703;SDS011;34502;51.296;16.918;2023-03-01T01:41:38;83.93;;;48.20;;
48703;SDS011;34502;51.296;16.918;2023-03-01T01:44:23;83.70;;;46.03;;
48703;SDS011;34502;51.296;16.918;2023-03-01T01:47:13;89.22;;;48.70;;
48703;SDS011;34502;51.296;16.918;2023-03-01T01:49:41;83.85;;;47.25;;
48703;SDS011;34502;51.296;16.918;2023-03-01T01:52:18;80.15;;;44.70;;
48703;SDS011;34502;51.296;16.918;2023-03-01T01:54:57;79.47;;;43.28;;
48703;SDS011;34502;51.296;16.918;2023-03-01T01:57:35;75.75;;;41.65;;
48703;SDS011;34502;51.296;16.918;2023-03-01T02:00:24;67.72;;;37.38;;
48703;SDS011;34502;51.296;16.918;2023-03-01T02:02:54;62.97;;;36.55;;
48703;SDS011;34502;51.296;16.918;2023-03-01T02:05:28;63.63;;;38.33;;
48703;SDS011;34502;51.296;16.918;2023-03-01T02:08:00;58.22;;;35.42;;
48703;SDS011;34502;51.296;16.918;2023-03-01T02:10:26;62.05;;;36.15;;
48703;SDS011;34502;51.296;16.918;2023-03-01T02:12:53;61.08;;;35.58;;
48703;SDS011;34502;51.296;16.918;2023-03-01T02:15:21;58.05;;;35.35;;
48703;SDS011;34502;51.296;16.918;2023-03-01T02:17:48;59.95;;;32.60;;
48703;SDS011;34502;51.296;16.918;2023-03-01T02:22:48;54.55;;;31.15;;
48703;SDS011;34502;51.296;16.918;2023-03-01T02:30:19;55.13;;;31.65;;
48703;SDS011;34502;51.296;16.918;2023-03-01T02:32:46;51.42;;;31.67;;
48703;SDS011;34502;51.296;16.918;2023-03-01T02:35:14;58.03;;;32.45;;
48703;SDS011;34502;51.296;16.918;2023-03-01T02:37:41;50.50;;;31.05;;
48703;SDS011;34502;51.296;16.918;2023-03-01T02:40:09;50.55;;;31.42;;
48703;SDS011;34502;51.296;16.918;2023-03-01T02:42:52;57.40;;;33.80;;
48703;SDS011;34502;51.296;16.918;2023-03-01T02:45:20;55.17;;;33.30;;
48703;SDS011;34502;51.296;16.918;2023-03-01T02:47:48;54.88;;;33.10;;
48703;SDS011;34502;51.296;16.918;2023-03-01T02:56:32;54.17;;;32.00;;
48703;SDS011;34502;51.296;16.918;2023-03-01T02:58:59;56.03;;;32.58;;
48703;SDS011;34502;51.296;16.918;2023-03-01T03:01:26;47.38;;;29.08;;
48703;SDS011;34502;51.296;16.918;2023-03-01T03:04:02;51.28;;;28.70;;
48703;SDS011;34502;51.296;16.918;2023-03-01T03:06:32;48.13;;;29.45;;
48703;SDS011;34502;51.296;16.918;2023-03-01T03:08:58;44.70;;;26.58;;
48703;SDS011;34502;51.296;16.918;2023-03-01T03:11:25;55.17;;;29.77;;
48703;SDS011;34502;51.296;16.918;2023-03-01T03:13:51;42.00;;;26.88;;
48703;SDS011;34502;51.296;16.918;2023-03-01T03:16:17;44.92;;;27.35;;
48703;SDS011;34502;51.296;16.918;2023-03-01T03:18:44;42.92;;;26.42;;
48703;SDS011;34502;51.296;16.918;2023-03-01T03:21:14;43.55;;;27.23;;
48703;SDS011;34502;51.296;16.918;2023-03-01T03:23:41;42.50;;;25.13;;
48703;SDS011;34502;51.296;16.918;2023-03-01T03:26:08;41.45;;;25.00;;
48703;SDS011;34502;51.296;16.918;2023-03-01T03:28:34;43.22;;;26.45;;
48703;SDS011;34502;51.296;16.918;2023-03-01T03:31:05;44.50;;;26.65;;
48703;SDS011;34502;51.296;16.918;2023-03-01T03:33:32;43.88;;;25.92;;
48703;SDS011;34502;51.296;16.918;2023-03-01T03:35:58;44.83;;;25.55;;
48703;SDS011;34502;51.296;16.918;2023-03-01T03:38:24;43.55;;;26.20;;
48703;SDS011;34502;51.296;16.918;2023-03-01T03:41:01;42.60;;;26.05;;
48703;SDS011;34502;51.296;16.918;2023-03-01T03:43:30;42.67;;;26.67;;
48703;SDS011;34502;51.296;16.918;2023-03-01T03:45:57;46.45;;;28.00;;
48703;SDS011;34502;51.296;16.918;2023-03-01T03:48:23;43.40;;;25.88;;
48703;SDS011;34502;51.296;16.918;2023-03-01T03:50:51;43.80;;;26.20;;
48703;SDS011;34502;51.296;16.918;2023-03-01T03:53:19;42.78;;;25.83;;
48703;SDS011;34502;51.296;16.918;2023-03-01T03:55:45;43.30;;;26.40;;
48703;SDS011;34502;51.296;16.918;2023-03-01T03:58:14;45.35;;;25.77;;
48703;SDS011;34502;51.296;16.918;2023-03-01T04:00:41;50.00;;;28.13;;
48703;SDS011;34502;51.296;16.918;2023-03-01T04:03:09;44.45;;;27.15;;
48703;SDS011;34502;51.296;16.918;2023-03-01T04:05:36;48.25;;;26.08;;
48703;SDS011;34502;51.296;16.918;2023-03-01T04:08:03;46.47;;;27.33;;
48703;SDS011;34502;51.296;16.918;2023-03-01T04:10:56;43.20;;;26.27;;
48703;SDS011;34502;51.296;16.918;2023-03-01T04:13:21;43.47;;;26.73;;
48703;SDS011;34502;51.296;16.918;2023-03-01T04:15:50;47.42;;;27.55;;
48703;SDS011;34502;51.296;16.918;2023-03-01T04:18:18;51.85;;;27.85;;
48703;SDS011;34502;51.296;16.918;2023-03-01T04:20:45;41.85;;;25.35;;
48703;SDS011;34502;51.296;16.918;2023-03-01T04:25:41;50.15;;;26.63;;
48703;SDS011;34502;51.296;16.918;2023-03-01T04:28:14;45.58;;;24.88;;
48703;SDS011;34502;51.296;16.918;2023-03-01T04:30:41;44.63;;;25.90;;
48703;SDS011;34502;51.296;16.918;2023-03-01T04:33:08;48.42;;;27.65;;
48703;SDS011;34502;51.296;16.918;2023-03-01T04:35:36;51.78;;;29.58;;
48703;SDS011;34502;51.296;16.918;2023-03-01T04:38:03;47.75;;;28.98;;
48703;SDS011;34502;51.296;16.918;2023-03-01T04:40:30;58.17;;;31.40;;
48703;SDS011;34502;51.296;16.918;2023-03-01T04:42:56;57.45;;;30.02;;
48703;SDS011;34502;51.296;16.918;2023-03-01T04:45:22;54.42;;;32.10;;
48703;SDS011;34502;51.296;16.918;2023-03-01T04:47:48;56.05;;;31.58;;
48703;SDS011;34502;51.296;16.918;2023-03-01T04:50:17;53.00;;;28.27;;
48703;SDS011;34502;51.296;16.918;2023-03-01T04:52:45;50.17;;;26.30;;
48703;SDS011;34502;51.296;16.918;2023-03-01T04:55:13;58.08;;;30.67;;
48703;SDS011;34502;51.296;16.918;2023-03-01T04:57:39;49.22;;;28.85;;
48703;SDS011;34502;51.296;16.918;2023-03-01T05:00:06;53.17;;;28.70;;
48703;SDS011;34502;51.296;16.918;2023-03-01T05:02:45;52.33;;;28.40;;
48703;SDS011;34502;51.296;16.918;2023-03-01T05:05:13;45.95;;;28.02;;
48703;SDS011;34502;51.296;16.918;2023-03-01T05:07:39;45.45;;;28.00;;
48703;SDS011;34502;51.296;16.918;2023-03-01T05:10:06;55.25;;;29.40;;
48703;SDS011;34502;51.296;16.918;2023-03-01T05:12:32;47.20;;;26.48;;
48703;SDS011;34502;51.296;16.918;2023-03-01T05:14:58;44.70;;;26.42;;
48703;SDS011;34502;51.296;16.918;2023-03-01T05:17:24;48.25;;;27.35;;
48703;SDS011;34502;51.296;16.918;2023-03-01T05:19:50;48.05;;;27.00;;
48703;SDS011;34502;51.296;16.918;2023-03-01T05:22:17;46.28;;;26.58;;
48703;SDS011;34502;51.296;16.918;2023-03-01T05:24:44;47.25;;;26.95;;
48703;SDS011;34502;51.296;16.918;2023-03-01T05:27:11;46.08;;;26.30;;
48703;SDS011;34502;51.296;16.918;2023-03-01T05:29:37;46.85;;;25.98;;
48703;SDS011;34502;51.296;16.918;2023-03-01T05:32:04;47.05;;;26.98;;
48703;SDS011;34502;51.296;16.918;2023-03-01T05:34:34;41.08;;;25.00;;
48703;SDS011;34502;51.296;16.918;2023-03-01T05:37:01;45.28;;;26.30;;
48703;SDS011;34502;51.296;16.918;2023-03-01T05:39:28;44.03;;;25.33;;
48703;SDS011;34502;51.296;16.918;2023-03-01T05:41:56;45.63;;;25.48;;
48703;SDS011;34502;51.296;16.918;2023-03-01T05:44:23;44.50;;;26.50;;
48703;SDS011;34502;51.296;16.918;2023-03-01T05:46:50;44.78;;;25.98;;
48703;SDS011;34502;51.296;16.918;2023-03-01T05:49:16;53.10;;;27.38;;
48703;SDS011;34502;51.296;16.918;2023-03-01T05:51:45;48.50;;;28.30;;
48703;SDS011;34502;51.296;16.918;2023-03-01T05:54:13;52.65;;;29.80;;
48703;SDS011;34502;51.296;16.918;2023-03-01T05:56:40;54.20;;;28.73;;
48703;SDS011;34502;51.296;16.918;2023-03-01T05:59:06;56.92;;;29.95;;
48703;SDS011;34502;51.296;16.918;2023-03-01T06:01:32;57.58;;;32.40;;
48703;SDS011;34502;51.296;16.918;2023-03-01T06:03:59;62.10;;;35.03;;
48703;SDS011;34502;51.296;16.918;2023-03-01T06:06:25;59.83;;;33.95;;
48703;SDS011;34502;51.296;16.918;2023-03-01T06:08:52;70.13;;;38.17;;
48703;SDS011;34502;51.296;16.918;2023-03-01T06:11:19;79.25;;;44.00;;
48703;SDS011;34502;51.296;16.918;2023-03-01T06:13:46;121.07;;;60.85;;
48703;SDS011;34502;51.296;16.918;2023-03-01T06:16:12;190.63;;;98.95;;
48703;SDS011;34502;51.296;16.918;2023-03-01T06:18:39;265.75;;;160.30;;
48703;SDS011;34502;51.296;16.918;2023-03-01T06:21:06;229.00;;;138.98;;
48703;SDS011;34502;51.296;16.918;2023-03-01T06:23:32;232.30;;;155.75;;
48703;SDS011;34502;51.296;16.918;2023-03-01T06:25:58;217.20;;;146.23;;
48703;SDS011;34502;51.296;16.918;2023-03-01T06:28:25;175.70;;;117.35;;
48703;SDS011;34502;51.296;16.918;2023-03-01T06:30:51;137.77;;;92.38;;
48703;SDS011;34502;51.296;16.918;2023-03-01T06:33:18;173.63;;;113.43;;
48703;SDS011;34502;51.296;16.918;2023-03-01T06:35:49;151.53;;;97.43;;
48703;SDS011;34502;51.296;16.918;2023-03-01T06:38:16;149.90;;;96.38;;
48703;SDS011;34502;51.296;16.918;2023-03-01T06:40:44;136.13;;;87.45;;
48703;SDS011;34502;51.296;16.918;2023-03-01T06:43:10;140.30;;;83.90;;
48703;SDS011;34502;51.296;16.918;2023-03-01T06:45:37;149.93;;;92.95;;
48703;SDS011;34502;51.296;16.918;2023-03-01T06:48:04;153.98;;;95.07;;
48703;SDS011;34502;51.296;16.918;2023-03-01T06:50:31;143.02;;;91.45;;
48703;SDS011;34502;51.296;16.918;2023-03-01T06:52:57;95.75;;;58.47;;
48703;SDS011;34502;51.296;16.918;2023-03-01T06:55:24;96.82;;;45.20;;
48703;SDS011;34502;51.296;16.918;2023-03-01T06:57:57;79.13;;;38.38;;
48703;SDS011;34502;51.296;16.918;2023-03-01T07:00:24;73.78;;;41.00;;
48703;SDS011;34502;51.296;16.918;2023-03-01T07:02:51;66.15;;;38.88;;
48703;SDS011;34502;51.296;16.918;2023-03-01T07:05:17;71.30;;;38.28;;
48703;SDS011;34502;51.296;16.918;2023-03-01T07:07:44;82.50;;;39.83;;
48703;SDS011;34502;51.296;16.918;2023-03-01T07:10:10;90.03;;;42.30;;
48703;SDS011;34502;51.296;16.918;2023-03-01T07:12:36;101.68;;;46.55;;
48703;SDS011;34502;51.296;16.918;2023-03-01T07:15:03;84.90;;;39.28;;
48703;SDS011;34502;51.296;16.918;2023-03-01T07:17:30;69.25;;;36.42;;
48703;SDS011;34502;51.296;16.918;2023-03-01T07:19:56;65.47;;;35.80;;
48703;SDS011;34502;51.296;16.918;2023-03-01T07:22:22;62.95;;;32.45;;
48703;SDS011;34502;51.296;16.918;2023-03-01T07:24:48;57.92;;;33.88;;
48703;SDS011;34502;51.296;16.918;2023-03-01T07:27:14;57.10;;;33.88;;
48703;SDS011;34502;51.296;16.918;2023-03-01T07:29:40;63.22;;;34.60;;
48703;SDS011;34502;51.296;16.918;2023-03-01T07:32:06;60.85;;;36.00;;
48703;SDS011;34502;51.296;16.918;2023-03-01T07:34:33;65.72;;;35.20;;
48703;SDS011;34502;51.296;16.918;2023-03-01T07:36:59;58.47;;;33.78;;
48703;SDS011;34502;51.296;16.918;2023-03-01T07:39:25;63.53;;;33.40;;
48703;SDS011;34502;51.296;16.918;2023-03-01T07:41:51;58.15;;;33.88;;
48703;SDS011;34502;51.296;16.918;2023-03-01T07:44:17;51.17;;;31.77;;
48703;SDS011;34502;51.296;16.918;2023-03-01T07:46:43;52.50;;;30.35;;
48703;SDS011;34502;51.296;16.918;2023-03-01T07:49:09;44.53;;;27.83;;
48703;SDS011;34502;51.296;16.918;2023-03-01T07:51:36;45.17;;;27.27;;
48703;SDS011;34502;51.296;16.918;2023-03-01T07:54:02;51.45;;;29.70;;
48703;SDS011;34502;51.296;16.918;2023-03-01T07:56:28;54.38;;;31.50;;
48703;SDS011;34502;51.296;16.918;2023-03-01T07:58:54;51.65;;;29.98;;
48703;SDS011;34502;51.296;16.918;2023-03-01T08:01:21;41.47;;;26.92;;
48703;SDS011;34502;51.296;16.918;2023-03-01T08:03:47;41.15;;;24.73;;
48703;SDS011;34502;51.296;16.918;2023-03-01T08:06:14;42.67;;;23.13;;
48703;SDS011;34502;51.296;16.918;2023-03-01T08:08:41;38.60;;;23.48;;
48703;SDS011;34502;51.296;16.918;2023-03-01T08:11:10;38.67;;;21.58;;
48703;SDS011;34502;51.296;16.918;2023-03-01T08:13:37;33.83;;;21.13;;
48703;SDS011;34502;51.296;16.918;2023-03-01T08:16:04;30.75;;;19.45;;
48703;SDS011;34502;51.296;16.918;2023-03-01T08:18:37;35.72;;;20.15;;
48703;SDS011;34502;51.296;16.918;2023-03-01T08:21:11;35.70;;;20.88;;
48703;SDS011;34502;51.296;16.918;2023-03-01T08:23:39;41.67;;;22.33;;
48703;SDS011;34502;51.296;16.918;2023-03-01T08:26:06;35.08;;;22.42;;
48703;SDS011;34502;51.296;16.918;2023-03-01T08:28:34;36.45;;;22.90;;
48703;SDS011;34502;51.296;16.918;2023-03-01T08:31:01;36.85;;;22.75;;
48703;SDS011;34502;51.296;16.918;2023-03-01T08:33:27;40.90;;;22.45;;
48703;SDS011;34502;51.296;16.918;2023-03-01T08:36:01;39.00;;;23.75;;
48703;SDS011;34502;51.296;16.918;2023-03-01T08:38:28;37.90;;;22.20;;
48703;SDS011;34502;51.296;16.918;2023-03-01T08:40:54;35.22;;;22.15;;
48703;SDS011;34502;51.296;16.918;2023-03-01T08:43:23;37.97;;;21.73;;
48703;SDS011;34502;51.296;16.918;2023-03-01T08:45:49;38.83;;;21.45;;
48703;SDS011;34502;51.296;16.918;2023-03-01T08:48:16;34.75;;;20.42;;
48703;SDS011;34502;51.296;16.918;2023-03-01T08:50:42;31.80;;;21.13;;
48703;SDS011;34502;51.296;16.918;2023-03-01T08:53:08;31.63;;;20.13;;
48703;SDS011;34502;51.296;16.918;2023-03-01T08:55:34;34.67;;;20.88;;
48703;SDS011;34502;51.296;16.918;2023-03-01T08:58:00;33.33;;;20.75;;
48703;SDS011;34502;51.296;16.918;2023-03-01T09:00:26;30.63;;;20.52;;
48703;SDS011;34502;51.296;16.918;2023-03-01T09:02:52;43.72;;;23.30;;
48703;SDS011;34502;51.296;16.918;2023-03-01T09:05:18;41.13;;;23.77;;
48703;SDS011;34502;51.296;16.918;2023-03-01T09:07:45;49.03;;;24.63;;
48703;SDS011;34502;51.296;16.918;2023-03-01T09:10:11;38.00;;;23.63;;
48703;SDS011;34502;51.296;16.918;2023-03-01T09:12:37;36.13;;;22.45;;
48703;SDS011;34502;51.296;16.918;2023-03-01T09:15:03;43.58;;;22.52;;
48703;SDS011;34502;51.296;16.918;2023-03-01T09:17:29;35.08;;;20.73;;
48703;SDS011;34502;51.296;16.918;2023-03-01T09:19:55;32.50;;;20.55;;
48703;SDS011;34502;51.296;16.918;2023-03-01T09:22:21;34.90;;;20.42;;
48703;SDS011;34502;51.296;16.918;2023-03-01T09:24:48;34.45;;;19.75;;
48703;SDS011;34502;51.296;16.918;2023-03-01T09:27:14;33.85;;;20.63;;
48703;SDS011;34502;51.296;16.918;2023-03-01T09:29:43;29.73;;;19.52;;
48703;SDS011;34502;51.296;16.918;2023-03-01T09:32:09;33.28;;;20.27;;
48703;SDS011;34502;51.296;16.918;2023-03-01T09:34:36;33.03;;;18.48;;
48703;SDS011;34502;51.296;16.918;2023-03-01T09:37:22;28.38;;;17.73;;
48703;SDS011;34502;51.296;16.918;2023-03-01T09:39:48;27.05;;;17.58;;
48703;SDS011;34502;51.296;16.918;2023-03-01T09:42:14;22.40;;;16.00;;
48703;SDS011;34502;51.296;16.918;2023-03-01T09:47:28;27.60;;;16.55;;
48703;SDS011;34502;51.296;16.918;2023-03-01T09:52:43;19.25;;;13.90;;
48703;SDS011;34502;51.296;16.918;2023-03-01T09:55:16;21.27;;;16.92;;
48703;SDS011;34502;51.296;16.918;2023-03-01T09:57:47;18.42;;;14.80;;
48703;SDS011;34502;51.296;16.918;2023-03-01T10:06:01;20.40;;;15.65;;
48703;SDS011;34502;51.296;16.918;2023-03-01T10:08:42;19.15;;;16.55;;
48703;SDS011;34502;51.296;16.918;2023-03-01T10:11:20;19.88;;;15.43;;
48703;SDS011;34502;51.296;16.918;2023-03-01T10:13:58;21.30;;;16.85;;
48703;SDS011;34502;51.296;16.918;2023-03-01T10:16:50;21.85;;;17.80;;
48703;SDS011;34502;51.296;16.918;2023-03-01T10:19:38;21.08;;;17.58;;
48703;SDS011;34502;51.296;16.918;2023-03-01T10:22:24;21.75;;;17.65;;
48703;SDS011;34502;51.296;16.918;2023-03-01T10:24:54;22.77;;;16.85;;
48703;SDS011;34502;51.296;16.918;2023-03-01T10:27:26;20.40;;;15.45;;
48703;SDS011;34502;51.296;16.918;2023-03-01T10:30:21;17.08;;;15.13;;
48703;SDS011;34502;51.296;16.918;2023-03-01T10:33:03;23.38;;;16.67;;
48703;SDS011;34502;51.296;16.918;2023-03-01T10:35:48;18.23;;;14.70;;
48703;SDS011;34502;51.296;16.918;2023-03-01T10:38:15;17.50;;;14.63;;
48703;SDS011;34502;51.296;16.918;2023-03-01T10:40:51;16.10;;;13.52;;
48703;SDS011;34502;51.296;16.918;2023-03-01T10:43:48;20.33;;;15.52;;
48703;SDS011;34502;51.296;16.918;2023-03-01T10:46:34;22.17;;;15.93;;
48703;SDS011;34502;51.296;16.918;2023-03-01T14:06:47;23.35;;;15.65;;
48703;SDS011;34502;51.296;16.918;2023-03-01T14:19:58;26.23;;;15.07;;
48703;SDS011;34502;51.296;16.918;2023-03-01T14:22:27;28.40;;;17.35;;
48703;SDS011;34502;51.296;16.918;2023-03-01T14:24:59;26.90;;;17.30;;
48703;SDS011;34502;51.296;16.918;2023-03-01T14:27:28;27.83;;;17.17;;
48703;SDS011;34502;51.296;16.918;2023-03-01T14:30:10;28.77;;;16.95;;
48703;SDS011;34502;51.296;16.918;2023-03-01T14:32:52;25.55;;;16.23;;
48703;SDS011;34502;51.296;16.918;2023-03-01T14:35:24;25.45;;;15.82;;
48703;SDS011;34502;51.296;16.918;2023-03-01T14:37:51;22.03;;;14.17;;
48703;SDS011;34502;51.296;16.918;2023-03-01T14:40:23;20.05;;;13.15;;
48703;SDS011;34502;51.296;16.918;2023-03-01T14:42:50;21.10;;;13.60;;
48703;SDS011;34502;51.296;16.918;2023-03-01T14:45:17;23.40;;;15.27;;
48703;SDS011;34502;51.296;16.918;2023-03-01T14:47:44;24.33;;;15.07;;
48703;SDS011;34502;51.296;16.918;2023-03-01T14:50:28;25.02;;;15.88;;
48703;SDS011;34502;51.296;16.918;2023-03-01T14:53:03;26.48;;;14.73;;
48703;SDS011;34502;51.296;16.918;2023-03-01T14:55:31;26.70;;;15.93;;
48703;SDS011;34502;51.296;16.918;2023-03-01T14:58:00;25.95;;;16.70;;
48703;SDS011;34502;51.296;16.918;2023-03-01T15:00:30;28.00;;;17.02;;
48703;SDS011;34502;51.296;16.918;2023-03-01T15:03:02;24.85;;;17.00;;
48703;SDS011;34502;51.296;16.918;2023-03-01T15:05:52;27.30;;;17.33;;
48703;SDS011;34502;51.296;16.918;2023-03-01T15:08:19;30.35;;;18.30;;
48703;SDS011;34502;51.296;16.918;2023-03-01T15:11:00;38.05;;;20.20;;
48703;SDS011;34502;51.296;16.918;2023-03-01T15:13:42;33.97;;;19.90;;
48703;SDS011;34502;51.296;16.918;2023-03-01T15:16:11;32.13;;;19.63;;
48703;SDS011;34502;51.296;16.918;2023-03-01T15:18:46;37.58;;;22.13;;
48703;SDS011;34502;51.296;16.918;2023-03-01T15:21:33;32.10;;;18.30;;
48703;SDS011;34502;51.296;16.918;2023-03-01T15:26:44;35.72;;;21.65;;
48703;SDS011;34502;51.296;16.918;2023-03-01T15:29:26;31.00;;;20.15;;
48703;SDS011;34502;51.296;16.918;2023-03-01T15:32:05;35.95;;;20.55;;
48703;SDS011;34502;51.296;16.918;2023-03-01T15:34:46;31.52;;;20.08;;
48703;SDS011;34502;51.296;16.918;2023-03-01T15:40:27;35.15;;;21.60;;
48703;SDS011;34502;51.296;16.918;2023-03-01T15:42:58;35.08;;;21.10;;
48703;SDS011;34502;51.296;16.918;2023-03-01T15:45:29;36.10;;;20.70;;
48703;SDS011;34502;51.296;16.918;2023-03-01T15:48:02;37.65;;;22.75;;
48703;SDS011;34502;51.296;16.918;2023-03-01T15:50:34;32.97;;;20.27;;
48703;SDS011;34502;51.296;16.918;2023-03-01T15:53:01;34.90;;;20.02;;
48703;SDS011;34502;51.296;16.918;2023-03-01T15:55:31;35.42;;;19.83;;
48703;SDS011;34502;51.296;16.918;2023-03-01T16:00:45;33.53;;;20.20;;
48703;SDS011;34502;51.296;16.918;2023-03-01T16:03:13;34.83;;;20.65;;
48703;SDS011;34502;51.296;16.918;2023-03-01T16:05:46;38.45;;;21.83;;
48703;SDS011;34502;51.296;16.918;2023-03-01T16:08:13;37.85;;;23.13;;
48703;SDS011;34502;51.296;16.918;2023-03-01T16:10:40;40.22;;;22.80;;
48703;SDS011;34502;51.296;16.918;2023-03-01T16:13:08;39.63;;;21.92;;
48703;SDS011;34502;51.296;16.918;2023-03-01T16:15:38;37.40;;;22.30;;
48703;SDS011;34502;51.296;16.918;2023-03-01T16:18:05;41.28;;;22.65;;
48703;SDS011;34502;51.296;16.918;2023-03-01T16:20:33;44.03;;;22.65;;
48703;SDS011;34502;51.296;16.918;2023-03-01T16:23:00;40.38;;;23.33;;
48703;SDS011;34502;51.296;16.918;2023-03-01T16:25:27;40.97;;;24.08;;
48703;SDS011;34502;51.296;16.918;2023-03-01T16:27:53;41.60;;;23.75;;
48703;SDS011;34502;51.296;16.918;2023-03-01T16:30:21;37.15;;;22.35;;
48703;SDS011;34502;51.296;16.918;2023-03-01T16:32:48;40.97;;;23.52;;
48703;SDS011;34502;51.296;16.918;2023-03-01T16:35:16;44.47;;;24.98;;
48703;SDS011;34502;51.296;16.918;2023-03-01T16:37:43;41.22;;;24.08;;
48703;SDS011;34502;51.296;16.918;2023-03-01T16:40:15;44.22;;;24.80;;
48703;SDS011;34502;51.296;16.918;2023-03-01T16:42:44;47.33;;;26.13;;
48703;SDS011;34502;51.296;16.918;2023-03-01T16:45:10;47.50;;;27.05;;
48703;SDS011;34502;51.296;16.918;2023-03-01T16:47:36;48.47;;;26.10;;
48703;SDS011;34502;51.296;16.918;2023-03-01T16:50:03;52.72;;;27.83;;
48703;SDS011;34502;51.296;16.918;2023-03-01T16:52:29;61.55;;;29.50;;
48703;SDS011;34502;51.296;16.918;2023-03-01T16:54:55;67.57;;;32.63;;
48703;SDS011;34502;51.296;16.918;2023-03-01T16:57:22;59.53;;;29.98;;
48703;SDS011;34502;51.296;16.918;2023-03-01T16:59:51;59.95;;;28.90;;
48703;SDS011;34502;51.296;16.918;2023-03-01T17:02:18;53.10;;;29.20;;
48703;SDS011;34502;51.296;16.918;2023-03-01T17:04:44;57.30;;;30.00;;
48703;SDS011;34502;51.296;16.918;2023-03-01T17:07:16;73.95;;;36.97;;
48703;SDS011;34502;51.296;16.918;2023-03-01T17:09:42;89.90;;;42.08;;
48703;SDS011;34502;51.296;16.918;2023-03-01T17:12:09;77.72;;;38.25;;
48703;SDS011;34502;51.296;16.918;2023-03-01T17:14:37;85.00;;;41.50;;
48703;SDS011;34502;51.296;16.918;2023-03-01T17:17:06;81.32;;;38.35;;
48703;SDS011;34502;51.296;16.918;2023-03-01T17:19:33;78.03;;;38.08;;
48703;SDS011;34502;51.296;16.918;2023-03-01T17:22:00;80.97;;;37.20;;
48703;SDS011;34502;51.296;16.918;2023-03-01T17:24:27;85.82;;;37.70;;
48703;SDS011;34502;51.296;16.918;2023-03-01T17:26:57;77.68;;;35.67;;
48703;SDS011;34502;51.296;16.918;2023-03-01T17:29:23;80.00;;;38.28;;
48703;SDS011;34502;51.296;16.918;2023-03-01T17:31:49;83.70;;;40.67;;
48703;SDS011;34502;51.296;16.918;2023-03-01T17:34:15;76.32;;;35.30;;
48703;SDS011;34502;51.296;16.918;2023-03-01T17:36:41;73.45;;;34.25;;
48703;SDS011;34502;51.296;16.918;2023-03-01T17:39:09;72.75;;;32.28;;
48703;SDS011;34502;51.296;16.918;2023-03-01T17:41:36;80.28;;;34.80;;
48703;SDS011;34502;51.296;16.918;2023-03-01T17:44:02;80.85;;;37.90;;
48703;SDS011;34502;51.296;16.918;2023-03-01T17:46:28;78.63;;;39.08;;
48703;SDS011;34502;51.296;16.918;2023-03-01T17:48:54;86.05;;;40.80;;
48703;SDS011;34502;51.296;16.918;2023-03-01T17:51:20;99.05;;;45.88;;
48703;SDS011;34502;51.296;16.918;2023-03-01T17:53:46;111.78;;;51.63;;
48703;SDS011;34502;51.296;16.918;2023-03-01T17:56:12;139.80;;;63.78;;
48703;SDS011;34502;51.296;16.918;2023-03-01T17:58:40;161.35;;;73.38;;
48703;SDS011;34502;51.296;16.918;2023-03-01T18:01:07;173.05;;;78.22;;
48703;SDS011;34502;51.296;16.918;2023-03-01T18:03:38;178.95;;;80.88;;
48703;SDS011;34502;51.296;16.918;2023-03-01T18:06:15;167.73;;;75.18;;
48703;SDS011;34502;51.296;16.918;2023-03-01T18:08:42;134.13;;;64.82;;
48703;SDS011;34502;51.296;16.918;2023-03-01T18:11:10;129.60;;;59.63;;
48703;SDS011;34502;51.296;16.918;2023-03-01T18:13:36;108.90;;;52.92;;
48703;SDS011;34502;51.296;16.918;2023-03-01T18:16:07;106.05;;;50.85;;
48703;SDS011;34502;51.296;16.918;2023-03-01T18:18:35;117.32;;;54.60;;
48703;SDS011;34502;51.296;16.918;2023-03-01T18:21:01;110.35;;;52.72;;
48703;SDS011;34502;51.296;16.918;2023-03-01T18:23:29;115.53;;;55.78;;